Temp: 6.5°C   Baro: 993.3mb
  Wind: 2.9mph   Dir: WSW (252°)
  Rain: 0.2mm (0.0mm/hr)
  Solar: 272W/m2  Hum: 85%
 
Bath Spa Weather Station Historical Data
Daily Summary for July 12, 2019 Units:  Metric    English   Both
Daily Weekly Monthly Yearly Custom
  High: Low: Average:
Temperature: 10.3 °C 6.8 °C 8.8 °C
Dew Point: 8.3 °C 5 °C 6.8 °C
Humidity: 93% 78% 87%
Wind Speed: 18.2km/h 0km/h 10.5km/h
Wind Gust: 35.4km/h - -
Wind- - WNW
Pressure: 1029.7 hPa 1021.2 hPa -
Precipitation: 0 mm    
Historical Graphs
 
 
Tabular Data for July 12, 2019
Time Temperature Dew Point Pressure Wind Wind Speed Wind Gust Humidity Rainfall Rate (Hourly) solar
00:04 6.8 °C 5 °C 1029.7 hPa Calm     88% 0 mm 0 W/m2
00:09 6.9 °C 5.1 °C 1029.3 hPa WNW 2.9 km/h 6.4 km/h 88% 0 mm 0 W/m2
00:14 7.2 °C 5.3 °C 1029.3 hPa NW 3.9 km/h 8 km/h 88% 0 mm 0 W/m2
00:19 7.3 °C 5.4 °C 1029.3 hPa NW 3.9 km/h 9.7 km/h 88% 0 mm 0 W/m2
00:24 7.3 °C 5.4 °C 1029.3 hPa WNW 3.2 km/h 11.3 km/h 88% 0 mm 0 W/m2
00:29 7.4 °C 5.5 °C 1029.3 hPa WNW 4.8 km/h 11.3 km/h 88% 0 mm 0 W/m2
00:34 7.4 °C 5.5 °C 1029.3 hPa WNW 3.5 km/h 8 km/h 88% 0 mm 0 W/m2
00:39 7.4 °C 5.5 °C 1029.3 hPa WNW 4.3 km/h 8 km/h 88% 0 mm 0 W/m2
00:44 7.4 °C 5.5 °C 1029.3 hPa WNW 4.3 km/h 8 km/h 88% 0 mm 0 W/m2
00:49 7.4 °C 5.5 °C 1029 hPa WNW 2.4 km/h 6.4 km/h 88% 0 mm 0 W/m2
00:54 7.4 °C 5.5 °C 1029 hPa WNW 1.9 km/h 4.8 km/h 88% 0 mm 0 W/m2
00:59 7.4 °C 5.5 °C 1029 hPa WNW 0.8 km/h 3.2 km/h 88% 0 mm 0 W/m2
01:04 7.4 °C 5.6 °C 1029 hPa WNW 2.1 km/h 4.8 km/h 88.4% 0 mm 0 W/m2
01:09 7.4 °C 5.6 °C 1029 hPa WNW 2.6 km/h 6.4 km/h 88.6% 0 mm 0 W/m2
01:14 7.4 °C 5.7 °C 1029 hPa WNW 4 km/h 8 km/h 88.9% 0 mm 0 W/m2
01:19 7.5 °C 5.7 °C 1029 hPa NW 3.2 km/h 8 km/h 88.4% 0 mm 0 W/m2
01:24 7.5 °C 5.6 °C 1029 hPa NW 2.9 km/h 6.4 km/h 88% 0 mm 0 W/m2
01:29 7.5 °C 5.6 °C 1029 hPa NW 0.6 km/h 6.4 km/h 88% 0 mm 0 W/m2
01:34 7.6 °C 5.7 °C 1029 hPa NW 1.8 km/h 4.8 km/h 88% 0 mm 0 W/m2
01:39 7.6 °C 5.7 °C 1029 hPa WNW 4.5 km/h 8 km/h 88% 0 mm 0 W/m2
01:44 7.7 °C 5.7 °C 1029 hPa WNW 5.8 km/h 9.7 km/h 87.3% 0 mm 0 W/m2
01:49 7.8 °C 5.8 °C 1029 hPa WNW 8.2 km/h 14.5 km/h 87% 0 mm 0 W/m2
01:54 7.9 °C 5.9 °C 1028.7 hPa WNW 9.5 km/h 17.7 km/h 87% 0 mm 0 W/m2
01:59 8.2 °C 6.2 °C 1028.7 hPa WNW 8.9 km/h 17.7 km/h 87% 0 mm 0 W/m2
02:04 8.2 °C 6.2 °C 1028.7 hPa WNW 8.2 km/h 16.1 km/h 87% 0 mm 0 W/m2
02:09 8.3 °C 6.3 °C 1028.7 hPa WNW 9 km/h 17.7 km/h 87% 0 mm 0 W/m2
02:14 8.3 °C 6.3 °C 1028.7 hPa WNW 10.5 km/h 19.3 km/h 87% 0 mm 0 W/m2
02:19 8.3 °C 6.3 °C 1028.7 hPa WNW 7.2 km/h 16.1 km/h 87.2% 0 mm 0 W/m2
02:24 8.3 °C 6.4 °C 1028.7 hPa WNW 8 km/h 16.1 km/h 87.9% 0 mm 0 W/m2
02:29 8.3 °C 6.4 °C 1028.3 hPa WNW 7.6 km/h 16.1 km/h 88% 0 mm 0 W/m2
02:34 8.3 °C 6.4 °C 1028.3 hPa WNW 5.3 km/h 11.3 km/h 88% 0 mm 0 W/m2
02:39 8.3 °C 6.4 °C 1028.3 hPa WNW 10.5 km/h 17.7 km/h 88% 0 mm 0 W/m2
02:44 8.3 °C 6.4 °C 1028.3 hPa West 9.3 km/h 17.7 km/h 88% 0 mm 0 W/m2
02:49 8.3 °C 6.4 °C 1028.3 hPa West 9.7 km/h 17.7 km/h 88% 0 mm 0 W/m2
02:54 8.3 °C 6.4 °C 1028.3 hPa WNW 10 km/h 17.7 km/h 88% 0 mm 0 W/m2
02:59 8.2 °C 6.5 °C 1028.3 hPa West 9.7 km/h 16.1 km/h 88.9% 0 mm 0 W/m2
03:04 8.2 °C 6.5 °C 1028 hPa West 11.1 km/h 25.7 km/h 89% 0 mm 0 W/m2
03:09 8.2 °C 6.6 °C 1028 hPa WNW 10.6 km/h 25.7 km/h 89% 0 mm 0 W/m2
03:14 8.3 °C 6.6 °C 1028.3 hPa West 10.6 km/h 22.5 km/h 89% 0 mm 0 W/m2
03:19 8.3 °C 6.6 °C 1028 hPa West 8 km/h 16.1 km/h 89% 0 mm 0 W/m2
03:24 8.2 °C 6.5 °C 1028 hPa West 7.7 km/h 19.3 km/h 89% 0 mm 0 W/m2
03:29 8.2 °C 6.5 °C 1027.7 hPa West 8.4 km/h 16.1 km/h 89% 0 mm 0 W/m2
03:34 8.2 °C 6.5 °C 1027.7 hPa WNW 7.7 km/h 16.1 km/h 89% 0 mm 0 W/m2
03:39 8.2 °C 6.5 °C 1027.7 hPa WNW 9 km/h 14.5 km/h 89% 0 mm 0 W/m2
03:44 8.3 °C 6.7 °C 1027.3 hPa WNW 11.9 km/h 22.5 km/h 89.4% 0 mm 0 W/m2
03:49 8.3 °C 6.8 °C 1027.3 hPa West 13 km/h 20.9 km/h 90% 0 mm 0 W/m2
03:54 8.3 °C 6.8 °C 1027.3 hPa West 11.9 km/h 20.9 km/h 90% 0 mm 0 W/m2
03:59 8.4 °C 6.9 °C 1027.3 hPa WNW 9.3 km/h 19.3 km/h 90% 0 mm 0 W/m2
04:04 8.4 °C 6.9 °C 1027.3 hPa West 9 km/h 16.1 km/h 90% 0 mm 0 W/m2
04:09 8.4 °C 6.9 °C 1027 hPa West 12.4 km/h 20.9 km/h 90% 0 mm 0 W/m2
04:14 8.4 °C 6.9 °C 1027 hPa WNW 10.8 km/h 20.9 km/h 90% 0 mm 0 W/m2
04:19 8.4 °C 6.9 °C 1027 hPa West 9 km/h 17.7 km/h 90% 0 mm 0 W/m2
04:24 8.4 °C 6.9 °C 1027.3 hPa WNW 10.5 km/h 17.7 km/h 90% 0 mm 0 W/m2
04:29 8.4 °C 6.9 °C 1027.3 hPa WNW 4.8 km/h 17.7 km/h 90% 0 mm 0 W/m2
04:34 8.4 °C 6.9 °C 1027.3 hPa West 7.7 km/h 14.5 km/h 90% 0 mm 0 W/m2
04:39 8.4 °C 6.9 °C 1027 hPa West 8.2 km/h 14.5 km/h 90% 0 mm 0 W/m2
04:44 8.4 °C 6.9 °C 1027 hPa West 7.1 km/h 14.5 km/h 90% 0 mm 0 W/m2
04:49 8.4 °C 6.9 °C 1027 hPa West 10.3 km/h 17.7 km/h 90% 0 mm 0 W/m2
04:54 8.4 °C 6.9 °C 1027 hPa West 8.4 km/h 17.7 km/h 90% 0 mm 0 W/m2
04:59 8.4 °C 6.9 °C 1027 hPa WNW 10.6 km/h 17.7 km/h 90% 0 mm 0 W/m2
05:04 8.4 °C 6.9 °C 1027 hPa West 13 km/h 22.5 km/h 90.7% 0 mm 0 W/m2
05:09 8.4 °C 7 °C 1026.6 hPa West 16.7 km/h 27.4 km/h 91% 0 mm 0 W/m2
05:14 8.4 °C 7 °C 1026.6 hPa West 10.6 km/h 22.5 km/h 91% 0 mm 0 W/m2
05:19 8.4 °C 7 °C 1026.6 hPa WNW 14.3 km/h 24.1 km/h 91% 0 mm 0 W/m2
05:24 8.4 °C 7 °C 1026.6 hPa WNW 12.1 km/h 24.1 km/h 91% 0 mm 0 W/m2
05:29 8.4 °C 7.2 °C 1026.6 hPa WNW 14.8 km/h 25.7 km/h 92% 0 mm 0 W/m2
05:34 8.4 °C 7.2 °C 1026.3 hPa WNW 13.5 km/h 25.7 km/h 92% 0 mm 0 W/m2
05:39 8.4 °C 7.1 °C 1026.3 hPa WNW 12.1 km/h 20.9 km/h 91.3% 0 mm 0 W/m2
05:44 8.4 °C 7.1 °C 1026 hPa WNW 15.4 km/h 30.6 km/h 91% 0 mm 0 W/m2
05:49 8.5 °C 7.1 °C 1026 hPa WNW 14.5 km/h 30.6 km/h 91% 0 mm 0 W/m2
05:54 8.6 °C 7.1 °C 1026 hPa WNW 12.7 km/h 27.4 km/h 90.3% 0 mm 0 W/m2
05:59 8.6 °C 7.1 °C 1026 hPa WNW 13.2 km/h 24.1 km/h 89.7% 0 mm 0 W/m2
06:04 8.6 °C 6.9 °C 1026 hPa WNW 12.9 km/h 20.9 km/h 89% 0 mm 0 W/m2
06:09 8.6 °C 6.9 °C 1026 hPa WNW 14 km/h 22.5 km/h 89% 0 mm 0 W/m2
06:14 8.6 °C 6.9 °C 1026 hPa WNW 11.4 km/h 22.5 km/h 89% 0 mm 0 W/m2
06:19 8.6 °C 6.9 °C 1026 hPa WNW 13.5 km/h 24.1 km/h 89% 0 mm 0 W/m2
06:24 8.6 °C 6.8 °C 1026 hPa WNW 13.4 km/h 24.1 km/h 89% 0 mm 0 W/m2
06:29 8.6 °C 6.8 °C 1025.6 hPa WNW 10.1 km/h 17.7 km/h 89% 0 mm 0 W/m2
06:34 8.5 °C 6.8 °C 1025.6 hPa WNW 13.7 km/h 20.9 km/h 89% 0 mm 0 W/m2
06:39 8.5 °C 6.8 °C 1025.6 hPa West 6.9 km/h 16.1 km/h 89% 0 mm 0 W/m2
06:44 8.5 °C 6.8 °C 1025.6 hPa WNW 8 km/h 16.1 km/h 89% 0 mm 0 W/m2
06:49 8.5 °C 6.8 °C 1025.6 hPa West 7.2 km/h 16.1 km/h 89% 0 mm 0 W/m2
06:54 8.5 °C 7 °C 1025.6 hPa West 12.1 km/h 20.9 km/h 90% 0 mm 0 W/m2
06:59 8.5 °C 7 °C 1025.6 hPa WNW 11.3 km/h 20.9 km/h 90% 0 mm 0 W/m2
07:04 8.5 °C 7 °C 1025.6 hPa WNW 9.7 km/h 16.1 km/h 90% 0 mm 0 W/m2
07:09 8.5 °C 7 °C 1025.6 hPa WNW 10 km/h 17.7 km/h 90% 0 mm 0 W/m2
07:14 8.4 °C 6.9 °C 1025.6 hPa WNW 10.3 km/h 22.5 km/h 90% 0 mm 0 W/m2
07:19 8.4 °C 6.9 °C 1025.6 hPa WNW 9 km/h 19.3 km/h 90% 0 mm 0 W/m2
07:24 8.4 °C 6.9 °C 1025.6 hPa WNW 16.1 km/h 24.1 km/h 90% 0 mm 0 W/m2
07:29 8.5 °C 7 °C 1025.6 hPa WNW 10.9 km/h 22.5 km/h 90% 0 mm 0 W/m2
07:34 8.4 °C 6.9 °C 1025.6 hPa WNW 12.6 km/h 20.9 km/h 90% 0 mm 0 W/m2
07:39 8.4 °C 6.9 °C 1025.6 hPa West 10.5 km/h 20.9 km/h 90% 0 mm 0 W/m2
07:44 8.5 °C 7 °C 1025.6 hPa West 9.7 km/h 20.9 km/h 90% 0 mm 0 W/m2
07:49 8.5 °C 7 °C 1025.6 hPa WNW 11.7 km/h 22.5 km/h 90% 0 mm 0 W/m2
07:54 8.5 °C 7 °C 1025.6 hPa West 10 km/h 22.5 km/h 90% 0 mm 0 W/m2
07:59 8.5 °C 7 °C 1025.3 hPa West 12.7 km/h 24.1 km/h 90% 0 mm 0 W/m2
08:04 8.5 °C 7 °C 1024.9 hPa WNW 10.8 km/h 24.1 km/h 90% 0 mm 5 W/m2
08:09 8.6 °C 7.1 °C 1025.3 hPa WNW 12.4 km/h 22.5 km/h 90% 0 mm 0 W/m2
08:14 8.6 °C 7.1 °C 1025.3 hPa WNW 16.1 km/h 27.4 km/h 90% 0 mm 0 W/m2
08:19 8.6 °C 7.1 °C 1025.3 hPa WNW 12.6 km/h 25.7 km/h 90% 0 mm 0 W/m2
08:24 8.7 °C 7.1 °C 1025.3 hPa West 13.8 km/h 22.5 km/h 90% 0 mm 0 W/m2
08:29 8.7 °C 7.2 °C 1025.3 hPa WNW 10 km/h 20.9 km/h 90% 0 mm 5 W/m2
08:34 8.7 °C 7.2 °C 1024.9 hPa West 16.6 km/h 24.1 km/h 90% 0 mm 5 W/m2
08:39 8.7 °C 7.3 °C 1024.9 hPa WNW 11.9 km/h 27.4 km/h 90.7% 0 mm 0 W/m2
08:44 8.7 °C 7.3 °C 1024.9 hPa WNW 14.6 km/h 22.5 km/h 91% 0 mm 7 W/m2
08:49 8.7 °C 7.3 °C 1024.9 hPa West 12.7 km/h 22.5 km/h 91% 0 mm 7 W/m2
08:54 8.7 °C 7.3 °C 1024.9 hPa West 11.4 km/h 22.5 km/h 91% 0 mm 12 W/m2
08:59 8.7 °C 7.3 °C 1024.9 hPa WNW 11.3 km/h 20.9 km/h 91% 0 mm 12 W/m2
09:04 8.7 °C 7.4 °C 1024.9 hPa WNW 10.3 km/h 20.9 km/h 91.6% 0 mm 12 W/m2
09:09 8.7 °C 7.5 °C 1024.9 hPa WNW 11.9 km/h 24.1 km/h 92% 0 mm 18 W/m2
09:14 8.7 °C 7.6 °C 1024.9 hPa WNW 12.6 km/h 22.5 km/h 92% 0 mm 16 W/m2
09:19 8.8 °C 7.6 °C 1024.9 hPa WNW 14 km/h 24.1 km/h 92% 0 mm 16 W/m2
09:24 8.8 °C 7.6 °C 1024.9 hPa WNW 13 km/h 24.1 km/h 92% 0 mm 19 W/m2
09:29 8.8 °C 7.6 °C 1024.9 hPa WNW 11.9 km/h 20.9 km/h 92% 0 mm 21 W/m2
09:34 8.8 °C 7.6 °C 1024.9 hPa WNW 10.8 km/h 24.1 km/h 92% 0 mm 25 W/m2
09:39 8.8 °C 7.6 °C 1024.9 hPa WNW 12.2 km/h 19.3 km/h 92% 0 mm 28 W/m2
09:44 8.8 °C 7.7 °C 1024.9 hPa WNW 12.1 km/h 22.5 km/h 92% 0 mm 28 W/m2
09:49 8.9 °C 7.7 °C 1024.9 hPa WNW 11.4 km/h 19.3 km/h 92% 0 mm 40 W/m2
09:54 8.9 °C 7.8 °C 1024.6 hPa WNW 16.6 km/h 30.6 km/h 93% 0 mm 42 W/m2
09:59 8.9 °C 7.8 °C 1024.6 hPa WNW 10.8 km/h 19.3 km/h 92.4% 0 mm 39 W/m2
10:04 8.9 °C 7.8 °C 1024.6 hPa WNW 13.7 km/h 24.1 km/h 92.9% 0 mm 32 W/m2
10:09 9 °C 7.9 °C 1024.6 hPa WNW 13 km/h 24.1 km/h 93% 0 mm 26 W/m2
10:14 9 °C 7.9 °C 1024.6 hPa WNW 12.1 km/h 22.5 km/h 93% 0 mm 32 W/m2
10:19 9.1 °C 7.9 °C 1024.6 hPa WNW 10.5 km/h 22.5 km/h 93% 0 mm 35 W/m2
10:24 9.1 °C 8 °C 1024.3 hPa WNW 9 km/h 20.9 km/h 93% 0 mm 37 W/m2
10:29 9.2 °C 8.1 °C 1024.3 hPa West 9.2 km/h 20.9 km/h 93% 0 mm 35 W/m2
10:34 9.2 °C 8.1 °C 1024.3 hPa WNW 12.9 km/h 20.9 km/h 92.7% 0 mm 42 W/m2
10:39 9.2 °C 8 °C 1023.9 hPa WNW 13.2 km/h 24.1 km/h 92% 0 mm 54 W/m2
10:44 9.2 °C 8.1 °C 1023.9 hPa WNW 11.3 km/h 24.1 km/h 92% 0 mm 60 W/m2
10:49 9.3 °C 8.1 °C 1023.9 hPa WNW 10.9 km/h 24.1 km/h 92% 0 mm 56 W/m2
10:54 9.3 °C 8.1 °C 1023.9 hPa WNW 11.6 km/h 24.1 km/h 92% 0 mm 58 W/m2
10:59 9.3 °C 8.1 °C 1023.9 hPa WNW 8.9 km/h 20.9 km/h 92% 0 mm 69 W/m2
11:04 9.3 °C 8.1 °C 1023.9 hPa WNW 8.7 km/h 17.7 km/h 92% 0 mm 62 W/m2
11:09 9.4 °C 8.2 °C 1023.9 hPa WNW 12.9 km/h 22.5 km/h 92% 0 mm 56 W/m2
11:14 9.4 °C 8.2 °C 1023.6 hPa WNW 15.9 km/h 29 km/h 92% 0 mm 56 W/m2
11:19 9.5 °C 8.3 °C 1023.6 hPa WNW 11.1 km/h 19.3 km/h 92% 0 mm 62 W/m2
11:24 9.5 °C 8.3 °C 1023.6 hPa WNW 9.2 km/h 20.9 km/h 91.8% 0 mm 77 W/m2
11:29 9.6 °C 8.2 °C 1023.9 hPa WNW 12.2 km/h 22.5 km/h 91% 0 mm 83 W/m2
11:34 9.7 °C 8.3 °C 1023.9 hPa NW 9.8 km/h 17.7 km/h 91% 0 mm 72 W/m2
11:39 9.7 °C 8.3 °C 1023.9 hPa WNW 11.7 km/h 20.9 km/h 90.9% 0 mm 90 W/m2
11:44 9.7 °C 8.2 °C 1023.9 hPa WNW 13.2 km/h 22.5 km/h 90.5% 0 mm 93 W/m2
11:49 9.8 °C 8.2 °C 1023.9 hPa West 9 km/h 19.3 km/h 90% 0 mm 98 W/m2
11:54 9.8 °C 8.2 °C 1023.6 hPa WNW 7.1 km/h 19.3 km/h 90% 0 mm 111 W/m2
11:59 9.8 °C 8.2 °C 1023.6 hPa WNW 10.5 km/h 20.9 km/h 90% 0 mm 114 W/m2
12:04 9.9 °C 8.2 °C 1023.6 hPa WNW 8.9 km/h 20.9 km/h 89% 0 mm 114 W/m2
12:09 9.9 °C 8.2 °C 1023.6 hPa WNW 8.5 km/h 17.7 km/h 89% 0 mm 111 W/m2
12:14 10 °C 8.2 °C 1023.6 hPa NW 12.6 km/h 22.5 km/h 88.2% 0 mm 109 W/m2
12:19 10.1 °C 8.1 °C 1023.6 hPa WNW 15.3 km/h 24.1 km/h 87.7% 0 mm 111 W/m2
12:24 10.1 °C 8 °C 1023.6 hPa WNW 13 km/h 24.1 km/h 86.8% 0 mm 116 W/m2
12:29 10.2 °C 7.9 °C 1023.6 hPa NW 10.5 km/h 24.1 km/h 85.8% 0 mm 120 W/m2
12:34 10.2 °C 7.7 °C 1023.6 hPa WNW 16.4 km/h 35.4 km/h 84.5% 0 mm 120 W/m2
12:39 10.3 °C 7.4 °C 1023.6 hPa WNW 16.7 km/h 29 km/h 82.7% 0 mm 120 W/m2
12:44 10.3 °C 7.3 °C 1023.2 hPa WNW 14.5 km/h 27.4 km/h 81.5% 0 mm 120 W/m2
12:49 10.3 °C 7.2 °C 1023.2 hPa NW 11.4 km/h 27.4 km/h 81% 0 mm 105 W/m2
12:54 10.3 °C 7.1 °C 1023.2 hPa WNW 13.7 km/h 27.4 km/h 80.1% 0 mm 93 W/m2
12:59 10.3 °C 6.9 °C 1023.2 hPa WNW 13.2 km/h 20.9 km/h 79.6% 0 mm 88 W/m2
13:04 10.3 °C 6.8 °C 1023.2 hPa WNW 11.3 km/h 22.5 km/h 79% 0 mm 84 W/m2
13:09 10.3 °C 6.8 °C 1023.2 hPa WNW 10 km/h 17.7 km/h 79% 0 mm 76 W/m2
13:14 10.3 °C 6.8 °C 1023.2 hPa WNW 12.4 km/h 20.9 km/h 79.1% 0 mm 56 W/m2
13:19 10.3 °C 7 °C 1023.2 hPa WNW 10.8 km/h 20.9 km/h 80% 0 mm 67 W/m2
13:24 10.2 °C 7 °C 1023.2 hPa WNW 14.5 km/h 22.5 km/h 80.3% 0 mm 67 W/m2
13:29 10.2 °C 7.1 °C 1022.9 hPa WNW 18.2 km/h 32.2 km/h 81.1% 0 mm 83 W/m2
13:34 10 °C 7.1 °C 1023.2 hPa WNW 13.7 km/h 32.2 km/h 81.8% 0 mm 90 W/m2
13:39 10 °C 7.1 °C 1022.9 hPa WNW 13.2 km/h 27.4 km/h 82% 0 mm 102 W/m2
13:44 10 °C 7.1 °C 1022.9 hPa WNW 12.6 km/h 20.9 km/h 82% 0 mm 111 W/m2
13:49 10 °C 7.1 °C 1022.9 hPa WNW 12.9 km/h 27.4 km/h 82% 0 mm 111 W/m2
13:54 9.9 °C 7.1 °C 1022.9 hPa WNW 11.4 km/h 22.5 km/h 82% 0 mm 86 W/m2
13:59 9.9 °C 7 °C 1022.9 hPa WNW 12.2 km/h 24.1 km/h 82% 0 mm 91 W/m2
14:04 9.9 °C 7 °C 1022.9 hPa WNW 11.7 km/h 20.9 km/h 82% 0 mm 74 W/m2
14:09 9.9 °C 7 °C 1022.9 hPa WNW 10.5 km/h 17.7 km/h 82% 0 mm 70 W/m2
14:14 9.9 °C 6.8 °C 1022.9 hPa WNW 11.4 km/h 19.3 km/h 81.1% 0 mm 76 W/m2
14:19 9.9 °C 6.7 °C 1022.6 hPa WNW 16.1 km/h 25.7 km/h 80.5% 0 mm 79 W/m2
14:24 9.9 °C 6.6 °C 1022.6 hPa WNW 11.7 km/h 25.7 km/h 80% 0 mm 81 W/m2
14:29 9.9 °C 6.6 °C 1022.6 hPa WNW 14.5 km/h 27.4 km/h 79.9% 0 mm 81 W/m2
14:34 9.9 °C 6.6 °C 1022.6 hPa WNW 12.4 km/h 27.4 km/h 79.8% 0 mm 79 W/m2
14:39 9.8 °C 6.6 °C 1022.6 hPa WNW 9.5 km/h 20.9 km/h 80% 0 mm 86 W/m2
14:44 9.8 °C 6.5 °C 1022.6 hPa WNW 11.9 km/h 24.1 km/h 80% 0 mm 86 W/m2
14:49 9.8 °C 6.4 °C 1022.6 hPa WNW 15.3 km/h 27.4 km/h 79.8% 0 mm 84 W/m2
14:54 9.8 °C 6.3 °C 1022.6 hPa NW 6.6 km/h 20.9 km/h 79.2% 0 mm 77 W/m2
14:59 9.8 °C 6.3 °C 1022.6 hPa NW 9.8 km/h 29 km/h 79% 0 mm 62 W/m2
15:04 9.8 °C 6.2 °C 1022.6 hPa NW 14.5 km/h 29 km/h 78.2% 0 mm 54 W/m2
15:09 9.8 °C 6.1 °C 1022.6 hPa NW 12.2 km/h 20.9 km/h 78% 0 mm 49 W/m2
15:14 9.8 °C 6.1 °C 1022.6 hPa WNW 9.5 km/h 17.7 km/h 78% 0 mm 47 W/m2
15:19 9.8 °C 6.1 °C 1022.6 hPa WNW 10.9 km/h 22.5 km/h 78% 0 mm 44 W/m2
15:24 9.7 °C 6.1 °C 1022.6 hPa WNW 9.5 km/h 22.5 km/h 78.3% 0 mm 44 W/m2
15:29 9.6 °C 6.1 °C 1022.6 hPa WNW 8.4 km/h 14.5 km/h 79% 0 mm 42 W/m2
15:34 9.5 °C 6.1 °C 1022.6 hPa WNW 9.7 km/h 19.3 km/h 79.6% 0 mm 42 W/m2
15:39 9.4 °C 6.2 °C 1022.6 hPa WNW 15.1 km/h 25.7 km/h 80.3% 0 mm 37 W/m2
15:44 9.3 °C 6.2 °C 1022.6 hPa WNW 14.5 km/h 30.6 km/h 81% 0 mm 30 W/m2
15:49 9.2 °C 6.2 °C 1022.6 hPa WNW 10.9 km/h 30.6 km/h 81.6% 0 mm 25 W/m2
15:54 9.2 °C 6.3 °C 1022.6 hPa WNW 15 km/h 22.5 km/h 82% 0 mm 21 W/m2
15:59 9.2 °C 6.3 °C 1022.6 hPa WNW 13 km/h 22.5 km/h 82% 0 mm 18 W/m2
16:04 9.2 °C 6.3 °C 1022.6 hPa WNW 11.9 km/h 25.7 km/h 82% 0 mm 12 W/m2
16:09 9.2 °C 6.3 °C 1022.6 hPa WNW 10.5 km/h 17.7 km/h 82% 0 mm 7 W/m2
16:14 9.2 °C 6.3 °C 1022.6 hPa WNW 10.9 km/h 19.3 km/h 82% 0 mm 5 W/m2
16:19 9.2 °C 6.3 °C 1022.6 hPa WNW 10.3 km/h 19.3 km/h 82% 0 mm 0 W/m2
16:24 9.2 °C 6.3 °C 1022.6 hPa West 11.3 km/h 16.1 km/h 82% 0 mm 0 W/m2
16:29 9.1 °C 6.2 °C 1022.6 hPa West 12.9 km/h 22.5 km/h 82% 0 mm 0 W/m2
16:34 9 °C 6.2 °C 1022.6 hPa West 11.9 km/h 22.5 km/h 82.7% 0 mm 0 W/m2
16:39 9 °C 6.2 °C 1022.6 hPa WNW 11.7 km/h 22.5 km/h 82.5% 0 mm 0 W/m2
16:44 9 °C 6.1 °C 1022.6 hPa WNW 8.9 km/h 20.9 km/h 82% 0 mm 0 W/m2
16:49 8.9 °C 6 °C 1022.6 hPa WNW 8.7 km/h 16.1 km/h 82% 0 mm 0 W/m2
16:54 8.9 °C 6 °C 1022.6 hPa West 8.5 km/h 16.1 km/h 82% 0 mm 0 W/m2
16:59 8.8 °C 5.9 °C 1022.6 hPa WNW 8.7 km/h 17.7 km/h 82% 0 mm 0 W/m2
17:04 8.8 °C 5.9 °C 1022.6 hPa WNW 7.6 km/h 12.9 km/h 82% 0 mm 0 W/m2
17:09 8.8 °C 5.9 °C 1022.6 hPa WNW 12.4 km/h 19.3 km/h 82% 0 mm 0 W/m2
17:14 8.7 °C 5.8 °C 1022.6 hPa West 8.9 km/h 19.3 km/h 82% 0 mm 0 W/m2
17:19 8.7 °C 5.8 °C 1022.6 hPa West 8.7 km/h 16.1 km/h 82% 0 mm 0 W/m2
17:24 8.7 °C 5.8 °C 1022.2 hPa WNW 7.6 km/h 14.5 km/h 82% 0 mm 0 W/m2
17:29 8.6 °C 5.7 °C 1022.2 hPa West 7.1 km/h 12.9 km/h 82% 0 mm 0 W/m2
17:34 8.5 °C 5.6 °C 1022.6 hPa WNW 5.3 km/h 12.9 km/h 82% 0 mm 0 W/m2
17:39 8.5 °C 5.6 °C 1022.6 hPa West 5.8 km/h 14.5 km/h 82% 0 mm 0 W/m2
17:44 8.5 °C 5.6 °C 1022.6 hPa WNW 5.6 km/h 12.9 km/h 82% 0 mm 0 W/m2
17:49 8.4 °C 5.7 °C 1022.6 hPa WNW 10.3 km/h 16.1 km/h 82.5% 0 mm 0 W/m2
17:54 8.4 °C 5.7 °C 1022.6 hPa WNW 12.1 km/h 19.3 km/h 83% 0 mm 0 W/m2
17:59 8.4 °C 5.7 °C 1022.6 hPa WNW 12.7 km/h 20.9 km/h 83% 0 mm 0 W/m2
18:04 8.4 °C 5.9 °C 1022.2 hPa WNW 12.2 km/h 20.9 km/h 83.7% 0 mm 0 W/m2
18:09 8.4 °C 5.9 °C 1022.2 hPa WNW 10.8 km/h 19.3 km/h 84% 0 mm 0 W/m2
18:14 8.4 °C 5.9 °C 1022.2 hPa West 13.4 km/h 20.9 km/h 84% 0 mm 0 W/m2
18:19 8.4 °C 5.9 °C 1022.2 hPa WNW 10.9 km/h 17.7 km/h 84.2% 0 mm 0 W/m2
18:24 8.4 °C 6 °C 1022.2 hPa WNW 11.9 km/h 20.9 km/h 85% 0 mm 0 W/m2
18:29 8.4 °C 6 °C 1022.2 hPa WNW 12.6 km/h 20.9 km/h 85% 0 mm 0 W/m2
18:34 8.4 °C 6.1 °C 1022.2 hPa WNW 11.7 km/h 20.9 km/h 85.3% 0 mm 0 W/m2
18:39 8.5 °C 6.2 °C 1022.2 hPa West 10.6 km/h 17.7 km/h 85.8% 0 mm 0 W/m2
18:44 8.5 °C 6.3 °C 1022.2 hPa West 12.6 km/h 22.5 km/h 86% 0 mm 0 W/m2
18:49 8.5 °C 6.3 °C 1022.2 hPa West 12.1 km/h 20.9 km/h 86% 0 mm 0 W/m2
18:54 8.6 °C 6.3 °C 1022.2 hPa WNW 10 km/h 20.9 km/h 86% 0 mm 0 W/m2
18:59 8.6 °C 6.4 °C 1022.2 hPa WNW 9.8 km/h 20.9 km/h 86% 0 mm 0 W/m2
19:04 8.6 °C 6.4 °C 1022.2 hPa WNW 11.3 km/h 19.3 km/h 86% 0 mm 0 W/m2
19:09 8.7 °C 6.4 °C 1022.2 hPa WNW 11.7 km/h 22.5 km/h 86% 0 mm 0 W/m2
19:14 8.7 °C 6.4 °C 1022.2 hPa West 10.1 km/h 19.3 km/h 86% 0 mm 0 W/m2
19:19 8.7 °C 6.5 °C 1022.2 hPa WNW 11.4 km/h 20.9 km/h 86% 0 mm 0 W/m2
19:24 8.7 °C 6.5 °C 1022.2 hPa WNW 14.2 km/h 25.7 km/h 86% 0 mm 0 W/m2
19:29 8.7 °C 6.5 °C 1021.9 hPa WNW 14.5 km/h 25.7 km/h 86% 0 mm 0 W/m2
19:34 8.7 °C 6.5 °C 1021.9 hPa WNW 11.9 km/h 24.1 km/h 86% 0 mm 0 W/m2
19:39 8.7 °C 6.5 °C 1021.9 hPa WNW 14.5 km/h 24.1 km/h 86% 0 mm 0 W/m2
19:44 8.7 °C 6.5 °C 1021.9 hPa WNW 10 km/h 22.5 km/h 86% 0 mm 0 W/m2
19:49 8.7 °C 6.6 °C 1021.9 hPa WNW 9.2 km/h 20.9 km/h 86.2% 0 mm 0 W/m2
19:54 8.7 °C 6.7 °C 1022.2 hPa WNW 8.9 km/h 17.7 km/h 87% 0 mm 0 W/m2
19:59 8.7 °C 6.7 °C 1022.2 hPa WNW 7.9 km/h 14.5 km/h 87% 0 mm 0 W/m2
20:04 8.7 °C 6.7 °C 1022.2 hPa WNW 10 km/h 16.1 km/h 87% 0 mm 0 W/m2
20:09 8.8 °C 6.8 °C 1022.2 hPa WNW 12.1 km/h 19.3 km/h 87% 0 mm 0 W/m2
20:14 8.8 °C 6.8 °C 1022.2 hPa WNW 7.9 km/h 19.3 km/h 87% 0 mm 0 W/m2
20:19 8.8 °C 6.8 °C 1022.2 hPa WNW 9.2 km/h 17.7 km/h 87% 0 mm 0 W/m2
20:24 8.8 °C 6.8 °C 1022.2 hPa WNW 9.2 km/h 17.7 km/h 87.4% 0 mm 0 W/m2
20:29 8.8 °C 6.9 °C 1022.2 hPa WNW 10.6 km/h 20.9 km/h 88% 0 mm 0 W/m2
20:34 8.8 °C 6.9 °C 1022.2 hPa WNW 7.1 km/h 14.5 km/h 88% 0 mm 0 W/m2
20:39 8.8 °C 6.9 °C 1022.2 hPa WNW 7.2 km/h 16.1 km/h 88% 0 mm 0 W/m2
20:44 8.8 °C 6.9 °C 1022.2 hPa WNW 7.1 km/h 16.1 km/h 88% 0 mm 0 W/m2
20:49 8.9 °C 7 °C 1021.9 hPa WNW 7.4 km/h 14.5 km/h 88% 0 mm 0 W/m2
20:54 8.9 °C 7 °C 1021.9 hPa WNW 11.3 km/h 17.7 km/h 88% 0 mm 0 W/m2
20:59 9 °C 7.1 °C 1022.2 hPa WNW 9.8 km/h 17.7 km/h 88% 0 mm 0 W/m2
21:04 9 °C 7.1 °C 1022.2 hPa WNW 8.5 km/h 16.1 km/h 88% 0 mm 0 W/m2
21:09 9 °C 7.1 °C 1021.9 hPa WNW 10.8 km/h 16.1 km/h 88% 0 mm 0 W/m2
21:14 9 °C 7.1 °C 1021.9 hPa WNW 12.6 km/h 17.7 km/h 88% 0 mm 0 W/m2
21:19 9 °C 7.1 °C 1021.9 hPa WNW 13.2 km/h 19.3 km/h 88% 0 mm 0 W/m2
21:24 9 °C 7.1 °C 1021.9 hPa WNW 12.6 km/h 17.7 km/h 88% 0 mm 0 W/m2
21:29 9 °C 7.1 °C 1021.9 hPa WNW 13.7 km/h 22.5 km/h 88% 0 mm 0 W/m2
21:34 9.1 °C 7.2 °C 1021.9 hPa WNW 12.2 km/h 20.9 km/h 88% 0 mm 0 W/m2
21:39 9.1 °C 7.2 °C 1021.9 hPa WNW 11.1 km/h 20.9 km/h 88% 0 mm 0 W/m2
21:44 9.1 °C 7.2 °C 1021.9 hPa WNW 11.6 km/h 20.9 km/h 88% 0 mm 0 W/m2
21:49 9 °C 7.1 °C 1021.9 hPa WNW 12.7 km/h 19.3 km/h 88% 0 mm 0 W/m2
21:54 9 °C 7.1 °C 1021.9 hPa WNW 12.4 km/h 19.3 km/h 88% 0 mm 0 W/m2
21:59 9 °C 7.1 °C 1021.9 hPa WNW 11.3 km/h 19.3 km/h 88% 0 mm 0 W/m2
22:04 9 °C 7.1 °C 1021.9 hPa WNW 12.2 km/h 20.9 km/h 88% 0 mm 0 W/m2
22:09 8.9 °C 7.1 °C 1021.9 hPa WNW 11.6 km/h 17.7 km/h 88% 0 mm 0 W/m2
22:14 9 °C 7.1 °C 1021.6 hPa WNW 10.6 km/h 17.7 km/h 88% 0 mm 0 W/m2
22:19 9 °C 7.1 °C 1021.6 hPa WNW 11.1 km/h 17.7 km/h 88% 0 mm 0 W/m2
22:24 9.1 °C 7.2 °C 1021.6 hPa WNW 13 km/h 19.3 km/h 88% 0 mm 0 W/m2
22:29 9.2 °C 7.3 °C 1021.6 hPa NW 6 km/h 17.7 km/h 88% 0 mm 0 W/m2
22:34 9.2 °C 7.3 °C 1021.6 hPa WNW 8.9 km/h 17.7 km/h 88% 0 mm 0 W/m2
22:39 9.2 °C 7.3 °C 1021.6 hPa WNW 9.8 km/h 14.5 km/h 88% 0 mm 0 W/m2
22:44 9.3 °C 7.4 °C 1021.6 hPa WNW 9.7 km/h 14.5 km/h 88% 0 mm 0 W/m2
22:49 9.3 °C 7.3 °C 1021.6 hPa WNW 10.6 km/h 16.1 km/h 88% 0 mm 0 W/m2
22:54 9.2 °C 7.3 °C 1021.6 hPa WNW 12.2 km/h 17.7 km/h 88% 0 mm 0 W/m2
22:59 9.2 °C 7.3 °C 1021.6 hPa WNW 14.3 km/h 25.7 km/h 88% 0 mm 0 W/m2
23:04 9.1 °C 7.3 °C 1021.6 hPa WNW 9.3 km/h 19.3 km/h 88.4% 0 mm 0 W/m2
23:09 9.1 °C 7.4 °C 1021.6 hPa NW 8.2 km/h 16.1 km/h 89% 0 mm 0 W/m2
23:14 9.1 °C 7.4 °C 1021.6 hPa WNW 9.3 km/h 17.7 km/h 89% 0 mm 0 W/m2
23:19 9.1 °C 7.3 °C 1021.6 hPa WNW 7.2 km/h 17.7 km/h 89% 0 mm 0 W/m2
23:24 9.1 °C 7.3 °C 1021.2 hPa NW 7.9 km/h 14.5 km/h 89% 0 mm 0 W/m2
23:29 9.1 °C 7.4 °C 1021.2 hPa WNW 10.6 km/h 16.1 km/h 89.3% 0 mm 0 W/m2
23:34 9.2 °C 7.6 °C 1021.2 hPa WNW 9.3 km/h 17.7 km/h 90% 0 mm 0 W/m2
23:39 9.1 °C 7.5 °C 1021.2 hPa WNW 8.7 km/h 16.1 km/h 90% 0 mm 0 W/m2
23:44 9.1 °C 7.5 °C 1021.2 hPa WNW 7.9 km/h 16.1 km/h 90% 0 mm 0 W/m2
23:49 9.1 °C 7.5 °C 1021.2 hPa WNW 8.9 km/h 16.1 km/h 90% 0 mm 0 W/m2
23:54 9.1 °C 7.5 °C 1021.2 hPa WNW 7.7 km/h 14.5 km/h 90% 0 mm 0 W/m2
23:59 9.2 °C 7.6 °C 1021.2 hPa WNW 9.3 km/h 17.7 km/h 90% 0 mm 0 W/m2
Bath Spa Weather
Compliments of Weather Underground - 2 mb